CYHE

Hope Airport

Hope, British Columbia, Canada
METAR CYHE 160600Z AUTO 12009KT 9SM OVC085 04/02 A2994 RMK SLP143
Observed Flight Rules
Dec-16 @ 06:00 UTC (33 minutes ago) Visual Flight Rules
Wind Visibility Clouds
120° at 9 knots 9 miles
  • Overcast at 8,500' AGL
Temperatures Readings
Current 4°C / 39°F
Dewpoint 2°C / 36°F
Humidity 87%
Altimeter 29.94" Hg
Pressure 1014.3 hPa
Elevation 39
METAR CYHE 160600Z AUTO 12009KT 9SM OVC085 04/02 A2994 RMK SLP143
Observed Flight Rules
Dec-16 @ 06:00 UTC
(33 minutes ago)
VFR
Wind Visibility
120° at 9 knots 9 miles
Clouds
  • Overcast at 8,500' AGL
Temperature Dewpoint
4°C / 39°F 2°C / 36°F
Humidity Altimeter Pressure
87% 29.94" Hg 1014.3 hPa